Pagrindinis puslapis
METAR-TAF:

METAR-TAF

Oro uostai :

Ahvazas, Iranas

platuma: 31-20N, ilguma: 048-40E, Aukštis: 20 m

Dabartinis oras

Ataskaita buvo paskelbta 12 minutes, ne 04:00 UTC
Ramus vėjas
Temperatūra 36°C
Drėgmė 33%
Slėgis 998 hPa
Matomumas: 7000 m

METAR: OIAW 160400Z 00000KT 7000 NSC 36/17 Q0998

Laikas: 08:42 (04:12 UTC)

Prognozė

Ataskaita buvo paskelbta 5 valandos ir 2 minutes, ne 23:10 UTC
Prognozė galioja nuo 16 metu 00 UTC su 17 metu 06 UTC
Vėjas 6 kt iš Šiaurės Vakarų
Matomumas: 7000 m
Laikinai
nuo 16 metu 00 UTC su 16 metu 06 UTC
Matomumas: 4000 m
Laikinai
nuo 16 metu 11 UTC su 16 metu 15 UTC
Vėjas 14 kt iš Vakarų
Matomumas: 5000 m
dulkės
Laikinai
nuo 17 metu 00 UTC su 17 metu 05 UTC
Matomumas: 5000 m
migla

TAF: OIAW 152310Z 1600/1706 32006KT 7000 NSC TEMPO 1600/1606 4000 DU/HZ TEMPO 1611/1615 26014KT 5000 DU TEMPO 1700/1705 5000 HZ

Orai ataskaitas ir orų prognozės (METAR, TAF).

turimą stotys yra geltonos ir raudonos taškus žemėlapyje.

Perkelti pele per norėdami pamatyti stoties vardą.

Tada spustelėkite, norėdami matyti oro stebėjimo ir prognozės.

Norėdami pakeisti žemėlapį: spustelėkite ant žalios mygtukų su juodo kryžiaus žemyn,; žalią mygtuką su brūkšneliu, jei norite nutolinti; arba žalių rodyklių gretimoms žemėlapius.


METAR-TAF: